createdAt,value
2023-02-17T00:00:03.930Z,21.00
2023-02-17T00:01:03.924Z,22.10
2023-02-17T00:02:03.914Z,21.90
2023-02-17T00:03:03.887Z,20.90
2023-02-17T00:04:03.870Z,21.50
2023-02-17T00:05:03.873Z,22.00
2023-02-17T00:06:04.137Z,22.90
2023-02-17T00:07:03.863Z,23.00
2023-02-17T00:08:03.854Z,21.70
2023-02-17T00:09:03.834Z,23.60
2023-02-17T00:10:03.828Z,22.20
2023-02-17T00:11:03.803Z,24.50
2023-02-17T00:12:03.804Z,22.40
2023-02-17T00:13:03.792Z,21.70
2023-02-17T00:14:03.767Z,22.20
2023-02-17T00:15:03.745Z,22.30
2023-02-17T00:16:04.318Z,21.50
2023-02-17T00:17:03.781Z,24.50
2023-02-17T00:18:03.722Z,21.70
2023-02-17T00:19:03.761Z,22.00
2023-02-17T00:20:03.693Z,22.50
2023-02-17T00:21:03.702Z,22.20
2023-02-17T00:22:03.684Z,20.90
2023-02-17T00:23:03.660Z,22.60
2023-02-17T00:24:03.655Z,22.60
2023-02-17T00:25:03.636Z,22.50
2023-02-17T00:26:03.847Z,26.10
2023-02-17T00:27:03.677Z,22.40
2023-02-17T00:28:03.618Z,23.30
2023-02-17T00:29:03.614Z,23.70
2023-02-17T00:30:03.657Z,23.80
2023-02-17T00:31:03.671Z,25.20
2023-02-17T00:32:03.763Z,25.80
2023-02-17T00:33:03.569Z,25.80
2023-02-17T00:34:03.535Z,22.30
2023-02-17T00:35:03.531Z,23.20
2023-02-17T00:36:03.878Z,24.80
2023-02-17T00:37:03.523Z,23.90
2023-02-17T00:38:03.498Z,25.70
2023-02-17T00:39:03.484Z,25.10
2023-02-17T00:40:03.475Z,23.50
2023-02-17T00:41:03.483Z,24.60
2023-02-17T00:42:03.479Z,23.10
2023-02-17T00:43:03.447Z,24.50
2023-02-17T00:44:03.447Z,23.10
2023-02-17T00:45:03.422Z,23.80
2023-02-17T00:46:03.784Z,23.10
2023-02-17T00:47:03.405Z,25.00
2023-02-17T00:48:03.417Z,25.10
2023-02-17T00:49:03.410Z,26.00
2023-02-17T00:50:03.357Z,23.50
2023-02-17T00:51:03.364Z,23.20
2023-02-17T00:52:03.339Z,23.10
2023-02-17T00:53:03.322Z,24.00
2023-02-17T00:54:03.383Z,23.80
2023-02-17T00:55:03.310Z,24.40
2023-02-17T00:56:03.718Z,26.50
2023-02-17T00:57:03.291Z,26.70
2023-02-17T00:58:03.284Z,26.40
2023-02-17T00:59:03.292Z,26.00
2023-02-17T01:00:03.245Z,24.30
2023-02-17T01:01:03.238Z,23.70
2023-02-17T01:02:03.263Z,24.30
2023-02-17T01:03:03.217Z,24.40
2023-02-17T01:04:03.208Z,24.20
2023-02-17T01:05:03.307Z,25.90
2023-02-17T01:06:03.457Z,28.50
2023-02-17T01:07:03.174Z,26.20
2023-02-17T01:08:03.152Z,26.70
2023-02-17T01:09:03.153Z,28.40
2023-02-17T01:10:03.168Z,25.80
2023-02-17T01:11:03.150Z,28.50
2023-02-17T01:12:03.119Z,27.90
2023-02-17T01:13:03.106Z,26.00
2023-02-17T01:14:03.114Z,28.90
2023-02-17T01:15:03.084Z,28.80
2023-02-17T01:16:03.348Z,26.80
2023-02-17T01:17:03.065Z,28.10
2023-02-17T01:18:03.083Z,25.10
2023-02-17T01:19:03.031Z,26.10
2023-02-17T01:20:03.033Z,25.50
2023-02-17T01:21:03.030Z,26.20
2023-02-17T01:22:03.003Z,27.90
2023-02-17T01:23:02.990Z,28.20
2023-02-17T01:24:03.036Z,27.70
2023-02-17T01:25:02.973Z,27.10
2023-02-17T01:26:03.247Z,25.90
2023-02-17T01:27:02.946Z,29.00
2023-02-17T01:28:02.932Z,26.00
2023-02-17T01:29:02.922Z,29.00
2023-02-17T01:30:03.001Z,28.10
2023-02-17T01:31:03.124Z,24.40
2023-02-17T01:32:02.977Z,26.30
2023-02-17T01:33:02.883Z,26.00
2023-02-17T01:34:02.875Z,25.00
2023-02-17T01:35:02.891Z,25.80
2023-02-17T01:36:03.004Z,26.70
2023-02-17T01:37:02.861Z,25.60
2023-02-17T01:38:02.834Z,24.10
2023-02-17T01:39:02.811Z,27.10
2023-02-17T01:40:02.836Z,25.00
2023-02-17T01:41:02.833Z,28.70
2023-02-17T01:42:02.784Z,27.60
2023-02-17T01:43:02.785Z,25.80
2023-02-17T01:44:02.748Z,26.50
2023-02-17T01:45:02.748Z,28.60
2023-02-17T01:46:02.735Z,25.40
2023-02-17T01:47:02.730Z,25.60
2023-02-17T01:48:02.736Z,26.60
2023-02-17T01:49:02.693Z,24.80
2023-02-17T01:50:02.681Z,25.20
2023-02-17T01:51:02.675Z,24.70
2023-02-17T01:52:02.655Z,28.00
2023-02-17T01:53:02.692Z,23.60
2023-02-17T01:54:02.635Z,26.80
2023-02-17T01:55:02.640Z,23.90
2023-02-17T01:56:02.619Z,24.30
2023-02-17T01:57:02.615Z,24.60
2023-02-17T01:58:02.588Z,24.70
2023-02-17T01:59:02.576Z,26.90
2023-02-17T02:00:02.567Z,23.20
2023-02-17T02:01:02.573Z,25.80
2023-02-17T02:02:02.752Z,24.60
2023-02-17T02:03:02.598Z,22.20
2023-02-17T02:04:02.531Z,23.60
2023-02-17T02:05:02.507Z,24.60
2023-02-17T02:06:02.670Z,23.50
2023-02-17T02:07:02.515Z,23.40
2023-02-17T02:08:02.475Z,22.80
2023-02-17T02:09:02.493Z,23.30
2023-02-17T02:10:02.458Z,23.30
2023-02-17T02:11:02.450Z,22.40
2023-02-17T02:12:02.460Z,21.60
2023-02-17T02:13:02.421Z,25.90
2023-02-17T02:14:02.416Z,22.50
2023-02-17T02:15:02.401Z,21.40
2023-02-17T02:16:02.407Z,21.40
2023-02-17T02:17:02.440Z,23.60
2023-02-17T02:18:02.369Z,21.90
2023-02-17T02:19:02.359Z,20.90
2023-02-17T02:20:02.343Z,22.00
2023-02-17T02:21:02.354Z,21.50
2023-02-17T02:22:02.369Z,22.00
2023-02-17T02:23:02.328Z,24.20
2023-02-17T02:24:02.301Z,20.20
2023-02-17T02:25:02.306Z,21.00
2023-02-17T02:26:02.278Z,23.50
2023-02-17T02:27:02.291Z,22.10
2023-02-17T02:28:02.263Z,22.80
2023-02-17T02:29:02.243Z,21.40
2023-02-17T02:30:02.269Z,20.90
2023-02-17T02:31:02.229Z,20.30
2023-02-17T02:32:02.320Z,22.00
2023-02-17T02:33:02.224Z,20.60
2023-02-17T02:34:02.192Z,22.40
2023-02-17T02:35:02.184Z,19.70
2023-02-17T02:36:02.162Z,21.70
2023-02-17T02:37:02.157Z,20.90
2023-02-17T02:38:02.157Z,19.90
2023-02-17T02:39:02.163Z,21.90
2023-02-17T02:40:02.127Z,19.90
2023-02-17T02:41:02.139Z,21.10
2023-02-17T02:42:02.118Z,20.00
2023-02-17T02:43:02.125Z,21.70
2023-02-17T02:44:02.103Z,20.70
2023-02-17T02:45:02.087Z,20.80
2023-02-17T02:46:02.194Z,20.20
2023-02-17T02:47:02.062Z,22.30
2023-02-17T02:48:02.050Z,19.70
2023-02-17T02:49:02.028Z,20.90
2023-02-17T02:50:02.027Z,20.60
2023-02-17T02:51:02.002Z,21.00
2023-02-17T02:52:01.987Z,21.10
2023-02-17T02:53:02.001Z,22.10
2023-02-17T02:54:01.964Z,20.40
2023-02-17T02:55:01.950Z,20.60
2023-02-17T02:56:01.945Z,20.90
2023-02-17T02:57:01.957Z,21.30
2023-02-17T02:58:01.950Z,22.40
2023-02-17T02:59:01.910Z,20.50
2023-02-17T03:00:01.901Z,20.90
2023-02-17T03:01:01.957Z,20.80
2023-02-17T03:02:01.897Z,21.00
2023-02-17T03:03:01.909Z,20.80
2023-02-17T03:04:01.962Z,19.70
2023-02-17T03:05:01.840Z,20.50
2023-02-17T03:06:01.863Z,20.70
2023-02-17T03:07:01.855Z,20.40
2023-02-17T03:08:01.834Z,21.20
2023-02-17T03:09:01.829Z,22.70
2023-02-17T03:10:01.788Z,21.70
2023-02-17T03:11:01.771Z,22.30
2023-02-17T03:12:01.763Z,20.00
2023-02-17T03:13:01.795Z,21.00
2023-02-17T03:14:01.760Z,19.40
2023-02-17T03:15:01.725Z,20.80
2023-02-17T03:16:01.718Z,20.90
2023-02-17T03:17:01.714Z,24.00
2023-02-17T03:18:01.704Z,21.80
2023-02-17T03:19:01.703Z,19.90
2023-02-17T03:20:01.669Z,21.10
2023-02-17T03:21:01.661Z,19.80
2023-02-17T03:22:01.654Z,20.10
2023-02-17T03:23:01.644Z,19.90
2023-02-17T03:24:01.660Z,20.60
2023-02-17T03:25:01.613Z,20.10
2023-02-17T03:26:01.610Z,22.80
2023-02-17T03:27:01.588Z,20.00
2023-02-17T03:28:01.592Z,20.00
2023-02-17T03:29:01.614Z,20.40
2023-02-17T03:30:01.595Z,20.40
2023-02-17T03:31:01.582Z,20.20
2023-02-17T03:32:01.577Z,20.20
2023-02-17T03:33:01.522Z,19.90
2023-02-17T03:34:01.549Z,19.80
2023-02-17T03:35:01.532Z,20.70
2023-02-17T03:36:01.510Z,20.50
2023-02-17T03:37:01.487Z,19.90
2023-02-17T03:38:01.479Z,19.70
2023-02-17T03:39:01.460Z,20.20
2023-02-17T03:40:01.470Z,20.20
2023-02-17T03:41:01.474Z,19.40
2023-02-17T03:42:01.442Z,19.40
2023-02-17T03:43:01.408Z,18.90
2023-02-17T03:44:01.400Z,19.00
2023-02-17T03:45:01.439Z,20.00
2023-02-17T03:46:01.447Z,20.20
2023-02-17T03:47:01.371Z,20.40
2023-02-17T03:48:01.376Z,19.70
2023-02-17T03:49:01.346Z,19.50
2023-02-17T03:50:01.359Z,19.60
2023-02-17T03:51:01.334Z,19.40
2023-02-17T03:52:01.312Z,19.40
2023-02-17T03:53:01.306Z,19.30
2023-02-17T03:54:01.299Z,19.40
2023-02-17T03:55:01.287Z,19.10
2023-02-17T03:56:01.282Z,19.60
2023-02-17T03:57:01.258Z,19.80
2023-02-17T03:58:01.243Z,18.90
2023-02-17T03:59:01.228Z,19.10
2023-02-17T04:00:01.219Z,18.80
2023-02-17T04:01:01.308Z,18.90
2023-02-17T04:02:01.195Z,19.10
2023-02-17T04:03:01.195Z,19.30
2023-02-17T04:04:01.205Z,19.10
2023-02-17T04:05:01.157Z,18.30
2023-02-17T04:06:01.168Z,19.80
2023-02-17T04:07:01.141Z,19.50
2023-02-17T04:08:01.132Z,19.90
2023-02-17T04:09:01.136Z,19.00
2023-02-17T04:10:02.662Z,19.30
2023-02-17T04:11:01.125Z,19.60
2023-02-17T04:12:01.093Z,18.80
2023-02-17T04:13:01.074Z,19.80
2023-02-17T04:14:01.084Z,19.20
2023-02-17T04:15:01.072Z,19.70
2023-02-17T04:16:01.139Z,19.80
2023-02-17T04:17:01.063Z,19.30
2023-02-17T04:18:01.010Z,18.10
2023-02-17T04:19:01.001Z,19.90
2023-02-17T04:20:01.007Z,18.70
2023-02-17T04:21:01.011Z,19.70
2023-02-17T04:22:00.993Z,18.90
2023-02-17T04:23:00.955Z,20.00
2023-02-17T04:24:00.954Z,19.90
2023-02-17T04:25:00.945Z,20.00
2023-02-17T04:26:00.953Z,18.80
2023-02-17T04:27:00.914Z,18.90
2023-02-17T04:28:00.906Z,19.00
2023-02-17T04:29:00.890Z,19.50
2023-02-17T04:30:00.903Z,19.80
2023-02-17T04:31:01.008Z,20.20
2023-02-17T04:32:00.972Z,18.90
2023-02-17T04:33:00.922Z,19.50
2023-02-17T04:34:00.837Z,19.20
2023-02-17T04:35:00.840Z,22.50
2023-02-17T04:36:00.845Z,18.60
2023-02-17T04:37:00.828Z,19.40
2023-02-17T04:38:00.793Z,19.70
2023-02-17T04:39:00.775Z,17.40
2023-02-17T04:40:00.780Z,18.50
2023-02-17T04:41:00.756Z,18.90
2023-02-17T04:42:00.770Z,18.40
2023-02-17T04:43:00.736Z,18.40
2023-02-17T04:44:00.720Z,18.30
2023-02-17T04:45:00.723Z,18.90
2023-02-17T04:46:00.756Z,18.60
2023-02-17T04:47:00.769Z,19.00
2023-02-17T04:48:00.702Z,18.20
2023-02-17T04:49:00.704Z,17.80
2023-02-17T04:50:00.677Z,18.00
2023-02-17T04:51:00.643Z,18.00
2023-02-17T04:52:00.654Z,18.60
2023-02-17T04:53:00.621Z,18.30
2023-02-17T04:54:00.608Z,18.00
2023-02-17T04:55:00.603Z,20.00
2023-02-17T04:56:00.599Z,19.50
2023-02-17T04:57:00.600Z,17.50
2023-02-17T04:58:00.564Z,18.30
2023-02-17T04:59:00.568Z,19.00
2023-02-17T05:00:00.560Z,18.00
2023-02-17T05:01:00.539Z,18.80
2023-02-17T05:02:00.594Z,18.80
2023-02-17T05:03:00.505Z,18.70
2023-02-17T05:04:00.510Z,18.10
2023-02-17T05:05:00.572Z,18.20
2023-02-17T05:06:00.477Z,18.70
2023-02-17T05:07:00.481Z,18.30
2023-02-17T05:08:00.454Z,18.40
2023-02-17T05:09:00.447Z,20.00
2023-02-17T05:10:00.446Z,18.60
2023-02-17T05:11:00.457Z,18.30
2023-02-17T05:12:00.424Z,19.10
2023-02-17T05:13:00.392Z,18.80
2023-02-17T05:14:00.386Z,18.80
2023-02-17T05:15:00.368Z,17.80
2023-02-17T05:16:00.406Z,18.10
2023-02-17T05:17:00.375Z,17.80
2023-02-17T05:18:00.348Z,17.70
2023-02-17T05:19:00.342Z,18.00
2023-02-17T05:20:00.323Z,18.10
2023-02-17T05:21:00.328Z,17.60
2023-02-17T05:22:00.298Z,18.20
2023-02-17T05:23:00.286Z,18.40
2023-02-17T05:24:00.291Z,17.80
2023-02-17T05:25:00.259Z,17.80
2023-02-17T05:26:00.252Z,18.10
2023-02-17T05:27:00.251Z,17.00
2023-02-17T05:28:00.226Z,17.50
2023-02-17T05:29:00.236Z,17.80
2023-02-17T05:30:00.292Z,17.70
2023-02-17T05:31:00.222Z,18.30
2023-02-17T05:32:00.314Z,17.40
2023-02-17T05:33:00.174Z,17.20
2023-02-17T05:34:00.202Z,18.30
2023-02-17T05:35:00.160Z,16.90
2023-02-17T05:36:00.132Z,18.80
2023-02-17T05:37:00.171Z,17.30
2023-02-17T05:38:00.131Z,18.30
2023-02-17T05:39:00.109Z,17.80
2023-02-17T05:40:00.123Z,18.10
2023-02-17T05:41:00.091Z,18.40
2023-02-17T05:42:00.176Z,17.60
2023-02-17T05:43:00.130Z,17.20
2023-02-17T05:44:00.123Z,17.90
2023-02-17T05:45:00.032Z,17.90
2023-02-17T05:46:00.042Z,17.90
2023-02-17T05:47:00.035Z,17.00
2023-02-17T05:48:00.000Z,19.40
2023-02-17T05:48:59.986Z,17.80
2023-02-17T05:50:00.015Z,17.60
2023-02-17T05:51:00.002Z,17.50
2023-02-17T05:51:59.975Z,16.90
2023-02-17T05:53:00.042Z,16.40
2023-02-17T05:54:00.032Z,16.80
2023-02-17T05:55:00.006Z,17.60
2023-02-17T05:55:59.921Z,17.30
2023-02-17T05:57:00.012Z,17.30
2023-02-17T05:57:59.888Z,17.90
2023-02-17T05:58:59.877Z,17.50
2023-02-17T05:59:59.869Z,17.00
2023-02-17T06:00:59.860Z,18.50
2023-02-17T06:01:59.865Z,16.90
2023-02-17T06:02:59.909Z,17.10
2023-02-17T06:03:59.818Z,16.80
2023-02-17T06:04:59.909Z,17.00
2023-02-17T06:05:59.811Z,17.00
2023-02-17T06:06:59.807Z,17.30
2023-02-17T06:07:59.780Z,17.00
2023-02-17T06:08:59.782Z,17.90
2023-02-17T06:09:59.758Z,17.20
2023-02-17T06:10:59.742Z,17.00
2023-02-17T06:11:59.761Z,16.90
2023-02-17T06:12:59.718Z,17.40
2023-02-17T06:13:59.711Z,17.90
2023-02-17T06:14:59.729Z,17.50
2023-02-17T06:15:59.753Z,18.00
2023-02-17T06:17:01.037Z,17.90
2023-02-17T06:17:59.673Z,16.90
2023-02-17T06:18:59.674Z,18.30
2023-02-17T06:19:59.652Z,18.20
2023-02-17T06:20:59.636Z,17.60
2023-02-17T06:21:59.647Z,17.80
2023-02-17T06:22:59.637Z,17.10
2023-02-17T06:23:59.635Z,18.10
2023-02-17T06:24:59.634Z,17.40
2023-02-17T06:25:59.583Z,17.50
2023-02-17T06:26:59.564Z,17.50
2023-02-17T06:27:59.595Z,18.20
2023-02-17T06:28:59.557Z,17.00
2023-02-17T06:29:59.592Z,17.20
2023-02-17T06:30:59.553Z,18.40
2023-02-17T06:31:59.555Z,17.90
2023-02-17T06:32:59.491Z,17.30
2023-02-17T06:33:59.487Z,16.80
2023-02-17T06:34:59.475Z,17.30
2023-02-17T06:35:59.496Z,17.30
2023-02-17T06:36:59.452Z,17.60
2023-02-17T06:37:59.474Z,16.30
2023-02-17T06:38:59.420Z,17.40
2023-02-17T06:39:59.415Z,17.70
2023-02-17T06:40:59.442Z,19.50
2023-02-17T06:41:59.399Z,17.40
2023-02-17T06:42:59.405Z,17.80
2023-02-17T06:43:59.408Z,18.30
2023-02-17T06:44:59.360Z,16.50
2023-02-17T06:45:59.378Z,16.50
2023-02-17T06:46:59.344Z,17.50
2023-02-17T06:47:59.364Z,17.10
2023-02-17T06:48:59.311Z,17.30
2023-02-17T06:49:59.305Z,17.70
2023-02-17T06:50:59.291Z,17.60
2023-02-17T06:51:59.290Z,16.40
2023-02-17T06:52:59.273Z,16.50
2023-02-17T06:53:59.272Z,16.70
2023-02-17T06:54:59.248Z,17.10
2023-02-17T06:55:59.233Z,16.80
2023-02-17T06:56:59.316Z,16.90
2023-02-17T06:57:59.234Z,16.30
2023-02-17T06:58:59.200Z,16.10
2023-02-17T06:59:59.202Z,16.00
2023-02-17T07:00:59.171Z,15.70
2023-02-17T07:02:01.968Z,16.40
2023-02-17T07:02:59.349Z,17.30
2023-02-17T07:03:59.168Z,15.40
2023-02-17T07:04:59.151Z,15.80
2023-02-17T07:05:59.136Z,18.50
2023-02-17T07:06:59.111Z,16.00
2023-02-17T07:07:59.098Z,15.80
2023-02-17T07:08:59.098Z,16.90
2023-02-17T07:09:59.110Z,15.90
2023-02-17T07:10:59.070Z,14.90
2023-02-17T07:11:59.053Z,15.00
2023-02-17T07:12:59.081Z,16.30
2023-02-17T07:13:59.037Z,16.70
2023-02-17T07:14:59.024Z,16.80
2023-02-17T07:15:59.024Z,16.70
2023-02-17T07:16:59.033Z,14.90
2023-02-17T07:17:59.004Z,15.10
2023-02-17T07:18:58.985Z,16.10
2023-02-17T07:19:58.987Z,15.70
2023-02-17T07:20:58.954Z,15.10
2023-02-17T07:21:58.965Z,13.70
2023-02-17T07:22:58.933Z,14.40
2023-02-17T07:23:58.940Z,15.30
2023-02-17T07:24:58.964Z,15.90
2023-02-17T07:25:58.892Z,14.30
2023-02-17T07:26:58.911Z,14.50
2023-02-17T07:27:58.909Z,14.60
2023-02-17T07:28:58.893Z,15.90
2023-02-17T07:29:58.962Z,14.80
2023-02-17T07:30:58.885Z,13.70
2023-02-17T07:31:58.938Z,15.00
2023-02-17T07:32:58.841Z,13.20
2023-02-17T07:33:58.821Z,15.50
2023-02-17T07:34:58.794Z,13.70
2023-02-17T07:35:58.814Z,13.30
2023-02-17T07:36:58.814Z,15.60
2023-02-17T07:37:58.761Z,13.40
2023-02-17T07:38:58.761Z,12.40
2023-02-17T07:39:58.741Z,12.90
2023-02-17T07:40:58.729Z,13.90
2023-02-17T07:41:58.710Z,12.80
2023-02-17T07:42:58.728Z,14.00
2023-02-17T07:43:58.692Z,12.10
2023-02-17T07:44:58.709Z,13.10
2023-02-17T07:45:59.484Z,13.40
2023-02-17T07:46:58.656Z,13.20
2023-02-17T07:47:58.666Z,12.90
2023-02-17T07:48:58.653Z,12.40
2023-02-17T07:49:58.632Z,13.00
2023-02-17T07:50:58.606Z,13.60
2023-02-17T07:51:58.601Z,11.40
2023-02-17T07:52:58.644Z,12.30
2023-02-17T07:53:58.581Z,12.10
2023-02-17T07:54:58.575Z,13.60
2023-02-17T07:55:58.576Z,12.50
2023-02-17T07:56:58.601Z,12.50
2023-02-17T07:57:58.528Z,10.70
2023-02-17T07:58:58.522Z,11.40
2023-02-17T07:59:58.517Z,11.30
2023-02-17T08:00:58.527Z,10.80
2023-02-17T08:01:58.525Z,11.30
2023-02-17T08:02:58.520Z,11.70
2023-02-17T08:03:58.478Z,11.70
2023-02-17T08:04:58.458Z,11.40
2023-02-17T08:05:58.444Z,11.10
2023-02-17T08:06:58.434Z,11.30
2023-02-17T08:07:58.439Z,10.70
2023-02-17T08:08:58.416Z,12.20
2023-02-17T08:09:58.409Z,11.20
2023-02-17T08:10:58.380Z,11.00
2023-02-17T08:11:58.410Z,11.30
2023-02-17T08:12:58.432Z,11.40
2023-02-17T08:13:58.358Z,10.50
2023-02-17T08:14:58.346Z,11.60
2023-02-17T08:15:58.334Z,10.90
2023-02-17T08:16:58.524Z,12.00
2023-02-17T08:17:58.304Z,10.40
2023-02-17T08:18:58.300Z,10.70
2023-02-17T08:20:00.535Z,11.00
2023-02-17T08:20:58.270Z,10.60
2023-02-17T08:21:58.280Z,9.90
2023-02-17T08:22:58.245Z,10.10
2023-02-17T08:23:58.243Z,10.70
2023-02-17T08:24:58.224Z,9.30
2023-02-17T08:25:58.241Z,10.20
2023-02-17T08:26:58.258Z,9.40
2023-02-17T08:27:58.193Z,9.80
2023-02-17T08:28:58.180Z,11.30
2023-02-17T08:29:58.232Z,9.40
2023-02-17T08:30:58.344Z,9.50
2023-02-17T08:31:58.264Z,9.60
2023-02-17T08:32:58.200Z,9.30
2023-02-17T08:33:58.130Z,9.20
2023-02-17T08:34:58.145Z,8.70
2023-02-17T08:35:58.109Z,9.50
2023-02-17T08:36:58.118Z,8.80
2023-02-17T08:37:58.120Z,8.90
2023-02-17T08:38:58.089Z,8.70
2023-02-17T08:39:58.057Z,10.10
2023-02-17T08:40:58.067Z,8.80
2023-02-17T08:41:58.071Z,8.70
2023-02-17T08:42:58.020Z,8.50
2023-02-17T08:43:58.020Z,9.00
2023-02-17T08:44:58.072Z,8.10
2023-02-17T08:45:58.021Z,8.30
2023-02-17T08:46:58.052Z,8.70
2023-02-17T08:47:57.963Z,9.20
2023-02-17T08:48:57.988Z,9.40
2023-02-17T08:49:57.945Z,8.30
2023-02-17T08:50:57.938Z,9.30
2023-02-17T08:51:58.004Z,8.00
2023-02-17T08:52:57.941Z,7.90
2023-02-17T08:53:57.896Z,8.20
2023-02-17T08:54:57.891Z,7.90
2023-02-17T08:55:57.871Z,11.20
2023-02-17T08:56:57.915Z,7.90
2023-02-17T08:57:57.907Z,8.00
2023-02-17T08:58:57.850Z,8.60
2023-02-17T08:59:57.829Z,8.70
2023-02-17T09:00:57.827Z,7.80
2023-02-17T09:01:57.962Z,8.10
2023-02-17T09:02:57.806Z,7.70
2023-02-17T09:03:57.807Z,8.00
2023-02-17T09:04:57.841Z,8.20
2023-02-17T09:05:57.794Z,8.40
2023-02-17T09:06:57.744Z,8.00
2023-02-17T09:07:57.761Z,9.10
2023-02-17T09:08:57.777Z,8.10
2023-02-17T09:09:57.710Z,8.90
2023-02-17T09:10:57.697Z,7.70
2023-02-17T09:11:57.793Z,7.70
2023-02-17T09:12:57.683Z,7.50
2023-02-17T09:13:57.707Z,7.30
2023-02-17T09:14:57.685Z,9.10
2023-02-17T09:15:57.690Z,7.20
2023-02-17T09:16:57.675Z,10.80
2023-02-17T09:17:57.654Z,7.40
2023-02-17T09:18:57.651Z,8.00
2023-02-17T09:19:57.622Z,7.20
2023-02-17T09:20:57.638Z,8.10
2023-02-17T09:21:57.593Z,8.00
2023-02-17T09:22:57.619Z,7.10
2023-02-17T09:23:57.619Z,7.80
2023-02-17T09:24:57.590Z,7.90
2023-02-17T09:25:57.556Z,6.60
2023-02-17T09:26:57.522Z,7.20
2023-02-17T09:27:59.762Z,7.10
2023-02-17T09:28:57.577Z,7.40
2023-02-17T09:29:57.561Z,8.30
2023-02-17T09:30:57.572Z,6.70
2023-02-17T09:31:57.563Z,6.80
2023-02-17T09:32:57.463Z,7.40
2023-02-17T09:33:57.545Z,7.20
2023-02-17T09:34:57.481Z,7.00
2023-02-17T09:35:57.453Z,7.30
2023-02-17T09:36:57.454Z,7.00
2023-02-17T09:37:57.463Z,6.90
2023-02-17T09:38:57.424Z,6.50
2023-02-17T09:39:57.452Z,7.50
2023-02-17T09:40:57.435Z,7.40
2023-02-17T09:41:57.365Z,7.30
2023-02-17T09:42:57.374Z,7.40
2023-02-17T09:43:57.358Z,6.60
2023-02-17T09:44:57.350Z,7.00
2023-02-17T09:45:57.415Z,7.20
2023-02-17T09:47:02.123Z,6.70
2023-02-17T09:47:58.286Z,6.70
2023-02-17T09:48:57.317Z,6.10
2023-02-17T09:49:57.293Z,6.50
2023-02-17T09:50:57.247Z,6.30
2023-02-17T09:51:57.265Z,6.70
2023-02-17T09:52:57.278Z,6.10
2023-02-17T09:53:57.314Z,5.90
2023-02-17T09:54:57.225Z,6.40
2023-02-17T09:55:57.218Z,6.60
2023-02-17T09:56:57.228Z,6.20
2023-02-17T09:57:57.187Z,6.10
2023-02-17T09:58:57.253Z,6.00
2023-02-17T09:59:57.233Z,6.70
2023-02-17T10:00:57.210Z,6.20
2023-02-17T10:01:57.185Z,5.90
2023-02-17T10:02:57.128Z,6.00
2023-02-17T10:03:57.172Z,6.30
2023-02-17T10:04:57.180Z,5.90
2023-02-17T10:05:57.133Z,5.30
2023-02-17T10:06:57.135Z,5.70
2023-02-17T10:07:57.061Z,5.80
2023-02-17T10:08:57.068Z,5.60
2023-02-17T10:09:57.037Z,5.60
2023-02-17T10:10:57.092Z,5.60
2023-02-17T10:11:57.076Z,5.40
2023-02-17T10:12:57.013Z,5.60
2023-02-17T10:13:57.113Z,6.90
2023-02-17T10:14:56.983Z,5.30
2023-02-17T10:15:57.019Z,5.50
2023-02-17T10:16:56.973Z,5.00
2023-02-17T10:17:56.993Z,5.70
2023-02-17T10:18:56.943Z,5.90
2023-02-17T10:19:56.921Z,5.30
2023-02-17T10:20:56.924Z,5.00
2023-02-17T10:21:56.923Z,5.70
2023-02-17T10:22:56.952Z,4.90
2023-02-17T10:23:56.919Z,4.90
2023-02-17T10:24:56.920Z,5.10
2023-02-17T10:25:56.883Z,4.50
2023-02-17T10:26:56.885Z,4.80
2023-02-17T10:27:56.856Z,5.30
2023-02-17T10:28:56.900Z,4.90
2023-02-17T10:29:56.882Z,4.50
2023-02-17T10:30:57.151Z,4.80
2023-02-17T10:31:57.010Z,4.70
2023-02-17T10:32:56.862Z,4.40
2023-02-17T10:33:56.877Z,4.80
2023-02-17T10:34:56.795Z,4.60
2023-02-17T10:35:56.741Z,5.00
2023-02-17T10:36:56.822Z,5.60
2023-02-17T10:37:56.788Z,4.10
2023-02-17T10:38:56.710Z,4.30
2023-02-17T10:39:56.691Z,4.30
2023-02-17T10:40:56.701Z,4.30
2023-02-17T10:41:56.702Z,6.90
2023-02-17T10:42:56.716Z,4.40
2023-02-17T10:43:56.650Z,4.50
2023-02-17T10:44:56.689Z,4.90
2023-02-17T10:45:56.627Z,5.10
2023-02-17T10:46:56.682Z,4.20
2023-02-17T10:47:56.628Z,4.60
2023-02-17T10:48:56.615Z,4.20
2023-02-17T10:49:56.601Z,4.70
2023-02-17T10:50:56.568Z,5.30
2023-02-17T10:51:56.573Z,3.80
2023-02-17T10:52:56.546Z,3.90
2023-02-17T10:53:56.590Z,4.50
2023-02-17T10:54:56.539Z,4.10
2023-02-17T10:55:56.515Z,4.10
2023-02-17T10:56:56.548Z,4.00
2023-02-17T10:57:56.492Z,4.60
2023-02-17T10:58:56.481Z,3.90
2023-02-17T10:59:56.493Z,5.40
2023-02-17T11:00:56.637Z,4.90
2023-02-17T11:01:56.440Z,3.80
2023-02-17T11:02:56.450Z,3.70
2023-02-17T11:03:56.451Z,3.60
2023-02-17T11:04:56.423Z,3.60
2023-02-17T11:05:56.406Z,3.40
2023-02-17T11:06:56.393Z,4.50
2023-02-17T11:07:56.400Z,3.90
2023-02-17T11:08:56.370Z,3.30
2023-02-17T11:09:56.352Z,3.60
2023-02-17T11:10:56.341Z,3.80
2023-02-17T11:11:56.350Z,3.70
2023-02-17T11:12:56.453Z,3.70
2023-02-17T11:13:56.340Z,4.10
2023-02-17T11:14:56.309Z,3.90
2023-02-17T11:15:56.337Z,4.10
2023-02-17T11:16:56.277Z,4.30
2023-02-17T11:17:56.261Z,3.90
2023-02-17T11:18:56.249Z,4.10
2023-02-17T11:19:56.242Z,4.30
2023-02-17T11:20:56.231Z,4.90
2023-02-17T11:21:56.251Z,4.10
2023-02-17T11:22:56.208Z,4.00
2023-02-17T11:23:56.200Z,4.10
2023-02-17T11:24:56.189Z,4.90
2023-02-17T11:25:56.185Z,4.10
2023-02-17T11:26:56.186Z,4.50
2023-02-17T11:27:56.153Z,4.20
2023-02-17T11:28:56.180Z,4.10
2023-02-17T11:29:56.141Z,5.40
2023-02-17T11:30:56.215Z,4.30
2023-02-17T11:31:56.261Z,5.20
2023-02-17T11:32:56.147Z,4.40
2023-02-17T11:33:57.044Z,5.60
2023-02-17T11:34:56.083Z,4.40
2023-02-17T11:35:56.062Z,3.70
2023-02-17T11:36:56.077Z,4.40
2023-02-17T11:37:56.040Z,3.90
2023-02-17T11:38:56.034Z,4.30
2023-02-17T11:39:56.041Z,3.70
2023-02-17T11:40:56.012Z,5.50
2023-02-17T11:41:56.075Z,3.80
2023-02-17T11:42:56.115Z,3.70
2023-02-17T11:43:55.995Z,3.70
2023-02-17T11:44:55.994Z,3.70
2023-02-17T11:45:56.112Z,5.30
2023-02-17T11:46:55.948Z,3.50
2023-02-17T11:47:55.929Z,3.20
2023-02-17T11:48:55.950Z,4.10
2023-02-17T11:49:55.926Z,3.70
2023-02-17T11:50:55.898Z,3.80
2023-02-17T11:51:55.909Z,3.50
2023-02-17T11:52:55.869Z,4.80
2023-02-17T11:53:55.862Z,4.10
2023-02-17T11:54:55.850Z,3.70
2023-02-17T11:55:55.843Z,3.90
2023-02-17T11:56:55.852Z,3.30
2023-02-17T11:57:55.836Z,3.70
2023-02-17T11:58:55.805Z,3.20
2023-02-17T11:59:55.794Z,4.90
2023-02-17T12:00:55.813Z,2.90
2023-02-17T12:01:55.809Z,3.00
2023-02-17T12:02:55.837Z,3.30
2023-02-17T12:03:55.749Z,3.00
2023-02-17T12:04:55.819Z,3.30
2023-02-17T12:05:55.757Z,3.40
2023-02-17T12:06:55.721Z,3.50
2023-02-17T12:07:55.754Z,3.70
2023-02-17T12:08:55.690Z,4.30
2023-02-17T12:09:55.701Z,7.00
2023-02-17T12:10:55.669Z,2.80
2023-02-17T12:11:55.673Z,4.20
2023-02-17T12:12:55.705Z,3.40
2023-02-17T12:13:55.649Z,4.10
2023-02-17T12:14:55.842Z,3.80
2023-02-17T12:15:55.610Z,5.80
2023-02-17T12:16:55.663Z,3.70
2023-02-17T12:17:55.584Z,5.50
2023-02-17T12:18:55.629Z,3.80
2023-02-17T12:19:55.582Z,3.90
2023-02-17T12:20:55.585Z,4.30
2023-02-17T12:21:55.563Z,3.60
2023-02-17T12:22:55.550Z,3.40
2023-02-17T12:23:55.549Z,3.50
2023-02-17T12:24:55.504Z,4.60
2023-02-17T12:25:55.509Z,4.20
2023-02-17T12:26:55.493Z,3.70
2023-02-17T12:27:55.506Z,4.60
2023-02-17T12:28:55.482Z,4.00
2023-02-17T12:29:55.554Z,3.80
2023-02-17T12:30:55.676Z,3.30
2023-02-17T12:31:55.588Z,4.10
2023-02-17T12:32:55.444Z,4.00
2023-02-17T12:33:55.411Z,3.40
2023-02-17T12:34:55.416Z,4.50
2023-02-17T12:35:55.392Z,2.90
2023-02-17T12:36:55.433Z,3.30
2023-02-17T12:37:55.405Z,4.60
2023-02-17T12:38:55.351Z,6.70
2023-02-17T12:39:55.337Z,4.40
2023-02-17T12:40:55.325Z,3.70
2023-02-17T12:41:55.331Z,5.50
2023-02-17T12:42:55.334Z,3.60
2023-02-17T12:43:55.291Z,3.60
2023-02-17T12:44:55.277Z,6.90
2023-02-17T12:45:55.311Z,4.60
2023-02-17T12:46:55.258Z,3.20
2023-02-17T12:47:55.280Z,3.80
2023-02-17T12:48:55.252Z,3.80
2023-02-17T12:49:55.227Z,3.90
2023-02-17T12:50:55.267Z,3.20
2023-02-17T12:51:55.205Z,3.40
2023-02-17T12:52:55.196Z,3.70
2023-02-17T12:53:55.186Z,3.00
2023-02-17T12:54:55.170Z,2.70
2023-02-17T12:55:55.165Z,2.70
2023-02-17T12:56:55.182Z,4.40
2023-02-17T12:57:55.134Z,3.50
2023-02-17T12:58:55.138Z,3.60
2023-02-17T12:59:55.112Z,2.40
2023-02-17T13:00:55.172Z,3.10